Lincoln, Delaware
Current Conditions -  °F | °C
As of 2:54 AM on Monday 24 Nov 2014 (Local Time) from KGED Reporting Station
Light Rain Light Rain  
Wind Chill: 64°   Ceiling: 1100
Heat Index: 64°   Visibility: 6mi
Dew Point: 61°   Wind: 21mph
Humidity: 90%   Direction: 170°S
Pressure: 29.78"   Gusts: 35mph
Location:  38.87°N, 75.42°W
Report Text: KGED 240754Z AUTO 17018G30KT 6SM -RA BR OVC011 18/16 A2978 RMK AO2 PK WND 16035/0742 SLP082 P0009 T01780161 $
Loading
Personal Weather Stations






























Interactive Weather Map New forecast layout! Learn more

10-Day Weather Forecast

Advertisements
Track Severe Weather on mobile